Station Historical Data
Daily Summary for January 20, 2017 Units:  Metric    English   Both
Next Day »
Daily Weekly Monthly Yearly Custom
  High: Low: Average:
Temperature: 3.6 °C 1.2 °C 2.9 °C
Dew Point: 3.1 °C 0.4 °C 2.2 °C
Humidity: 96% 95% 95%
Wind Speed: 38.6km/h 0km/h 15km/h
Wind Gust: 49.9km/h - -
Wind- - South
Pressure: 1006.7 hPa 993.8 hPa -
Precipitation: 0 mm    
Historical Graphs
 
 
Tabular Data for January 20, 2017
Time Temperature Dew Point Pressure Wind Wind Speed Wind Gust Humidity Rainfall Rate (Hourly) solar Conditions
00:02 3.4 °C 2.7 °C 1006.7 hPa SSE 22.5 km/h 25.7 km/h 95% 0 mm 0.00 W/m2
00:07 3.4 °C 2.9 °C 1006.3 hPa SSE 14.5 km/h 30.6 km/h 96% 0 mm 0.00 W/m2
00:12 3.4 °C 2.9 °C 1006 hPa SSE 17.7 km/h 32.2 km/h 96% 0 mm 0.00 W/m2
00:17 3.5 °C 2.9 °C 1006 hPa South 17.7 km/h 45.1 km/h 96% 0 mm 0.00 W/m2
00:22 3.5 °C 2.9 °C 1005.6 hPa SE 19.3 km/h 32.2 km/h 96% 0 mm 0.00 W/m2
00:27 3.4 °C 2.9 °C 1005.6 hPa SSE 24.1 km/h 33.8 km/h 96% 0 mm 0.00 W/m2
00:32 3.5 °C 2.9 °C 1005.6 hPa SSE 9.7 km/h 32.2 km/h 96% 0 mm 0.00 W/m2
00:37 3.4 °C 2.9 °C 1005.3 hPa SE 16.1 km/h 29 km/h 96% 0 mm 0.00 W/m2
00:42 3.5 °C 2.9 °C 1005 hPa SSE 17.7 km/h 32.2 km/h 96% 0 mm 0.00 W/m2
00:47 3.4 °C 2.9 °C 1005 hPa South 16.1 km/h 29 km/h 96% 0 mm 0.00 W/m2
00:52 3.4 °C 2.9 °C 1004.6 hPa SSW 22.5 km/h 32.2 km/h 96% 0 mm 0.00 W/m2
00:58 3.4 °C 2.9 °C 1004.3 hPa South 11.3 km/h 29 km/h 96% 0 mm 0.00 W/m2
01:03 3.4 °C 2.9 °C 1003.9 hPa SSE 24.1 km/h 40.2 km/h 96% 0 mm 0.00 W/m2
01:08 3.4 °C 2.9 °C 1003.9 hPa SE 30.6 km/h 35.4 km/h 96% 0 mm 0.00 W/m2
01:13 3.5 °C 2.9 °C 1003.9 hPa South 11.3 km/h 38.6 km/h 96% 0 mm 0.00 W/m2
01:18 3.5 °C 2.9 °C 1003.9 hPa SSE 12.9 km/h 29 km/h 96% 0 mm 0.00 W/m2
01:23 3.4 °C 2.9 °C 1004.3 hPa South 14.5 km/h 30.6 km/h 96% 0 mm 0.00 W/m2
01:28 3.4 °C 2.9 °C 1004.3 hPa Calm   25.7 km/h 96% 0 mm 0.00 W/m2
01:33 3.4 °C 2.9 °C 1004.3 hPa South 22.5 km/h 35.4 km/h 96% 0 mm 0.00 W/m2
01:38 3.5 °C 2.9 °C 1004.3 hPa SSW 35.4 km/h 40.2 km/h 96% 0 mm 0.00 W/m2
01:43 3.4 °C 2.9 °C 1003.9 hPa South 35.4 km/h 35.4 km/h 96% 0 mm 0.00 W/m2
01:48 3.4 °C 2.7 °C 1003.6 hPa SE 22.5 km/h 32.2 km/h 95% 3.05 mm 0.00 W/m2
01:53 3.3 °C 2.6 °C 1003.6 hPa SSE 17.7 km/h 37 km/h 95% 1.78 mm 0.00 W/m2
01:58 3.3 °C 2.6 °C 1003.3 hPa ESE 14.5 km/h 32.2 km/h 95% 1.02 mm 0.00 W/m2
02:03 3.3 °C 2.6 °C 1002.9 hPa SE 19.3 km/h 45.1 km/h 95% 1.02 mm 0.00 W/m2
02:08 3.3 °C 2.6 °C 1002.9 hPa SSE 25.7 km/h 27.4 km/h 95% 1.02 mm 0.00 W/m2
02:13 3.3 °C 2.6 °C 1002.9 hPa SSE 11.3 km/h 37 km/h 95% 1.02 mm 0.00 W/m2
02:18 3.3 °C 2.6 °C 1003.3 hPa South 30.6 km/h 38.6 km/h 95% 1.02 mm 0.00 W/m2
02:23 3.3 °C 2.6 °C 1002.9 hPa South 17.7 km/h 29 km/h 95% 1.02 mm 0.00 W/m2
02:28 3.3 °C 2.6 °C 1002.6 hPa South 11.3 km/h 35.4 km/h 95% 1.02 mm 0.00 W/m2
02:33 3.2 °C 2.5 °C 1002.3 hPa SE 12.9 km/h 32.2 km/h 95% 1.02 mm 0.00 W/m2
02:38 3.2 °C 2.5 °C 1002.3 hPa SE 24.1 km/h 35.4 km/h 95% 1.02 mm 0.00 W/m2
02:43 3.2 °C 2.5 °C 1002.3 hPa South 32.2 km/h 32.2 km/h 95% 1.02 mm 0.00 W/m2
02:48 3.2 °C 2.5 °C 1001.9 hPa SSW 17.7 km/h 41.8 km/h 95% 1.02 mm 0.00 W/m2
02:53 3.2 °C 2.4 °C 1001.6 hPa SSE 17.7 km/h 37 km/h 95% 1.52 mm 0.00 W/m2
02:58 3.1 °C 2.4 °C 1001.6 hPa SE 24.1 km/h 33.8 km/h 95% 1.52 mm 0.00 W/m2
03:03 3 °C 2.3 °C 1001.2 hPa SE 38.6 km/h 45.1 km/h 95% 1.52 mm 0.00 W/m2
03:08 3 °C 2.3 °C 1000.9 hPa SE 20.9 km/h 37 km/h 95% 1.52 mm 0.00 W/m2
03:13 2.9 °C 2.2 °C 1000.9 hPa SE 8 km/h 38.6 km/h 95% 1.27 mm 0.00 W/m2
03:18 2.8 °C 2.1 °C 1000.9 hPa SE 30.6 km/h 48.3 km/h 95% 1.27 mm 0.00 W/m2
03:23 2.8 °C 2.1 °C 1000.6 hPa SSE 20.9 km/h 41.8 km/h 95% 1.52 mm 0.00 W/m2
03:28 2.8 °C 2.1 °C 1000.2 hPa SSE 9.7 km/h 32.2 km/h 95% 1.52 mm 0.00 W/m2
03:33 2.8 °C 2.1 °C 999.9 hPa South 20.9 km/h 37 km/h 95% 1.27 mm 0.00 W/m2
03:38 2.7 °C 2 °C 999.9 hPa South 17.7 km/h 43.5 km/h 95% 1.27 mm 0.00 W/m2
03:43 2.7 °C 1.9 °C 999.9 hPa SE 30.6 km/h 41.8 km/h 95% 2.29 mm 0.00 W/m2
03:48 2.6 °C 1.9 °C 999.5 hPa SSE 14.5 km/h 40.2 km/h 95% 1.78 mm 0.00 W/m2
03:53 2.6 °C 1.8 °C 999.5 hPa SSE 25.7 km/h 38.6 km/h 95% 1.27 mm 0.00 W/m2
03:58 2.6 °C 1.8 °C 999.2 hPa South 33.8 km/h 38.6 km/h 95% 3.56 mm 0.00 W/m2
04:03 2.5 °C 1.8 °C 998.9 hPa SE 9.7 km/h 29 km/h 95% 3.05 mm 0.00 W/m2
04:08 2.4 °C 1.7 °C 998.5 hPa ESE 14.5 km/h 35.4 km/h 95% 1.27 mm 0.00 W/m2
04:13 2.4 °C 1.7 °C 998.5 hPa SSE 22.5 km/h 49.9 km/h 95% 1.27 mm 0.00 W/m2
04:18 2.4 °C 1.7 °C 998.2 hPa SSE 19.3 km/h 43.5 km/h 95% 1.27 mm 0.00 W/m2
04:23 2.4 °C 1.7 °C 997.9 hPa SSE 17.7 km/h 35.4 km/h 95% 1.27 mm 0.00 W/m2
04:28 2.4 °C 1.7 °C 997.9 hPa SE 30.6 km/h 35.4 km/h 95% 1.27 mm 0.00 W/m2
04:33 2.4 °C 1.7 °C 997.9 hPa SE 27.4 km/h 43.5 km/h 95% 1.78 mm 0.00 W/m2
04:39 2.4 °C 1.7 °C 997.5 hPa SSE 14.5 km/h 30.6 km/h 95% 2.03 mm 0.00 W/m2
04:44 2.4 °C 1.7 °C 997.5 hPa SE 30.6 km/h 45.1 km/h 95% 2.03 mm 0.00 W/m2
04:49 2.4 °C 1.7 °C 997.5 hPa SE 20.9 km/h 43.5 km/h 95% 1.52 mm 0.00 W/m2
04:54 2.4 °C 1.7 °C 997.2 hPa SSE 19.3 km/h 37 km/h 95% 1.02 mm 0.00 W/m2
04:59 2.3 °C 1.6 °C 997.2 hPa SE 12.9 km/h 40.2 km/h 95% 1.02 mm 0.00 W/m2
05:04 2.3 °C 1.6 °C 996.8 hPa SE 27.4 km/h 37 km/h 95% 2.03 mm 0.00 W/m2
05:09 2.3 °C 1.6 °C 996.8 hPa East 11.3 km/h 33.8 km/h 95% 2.03 mm 0.00 W/m2
05:14 2.3 °C 1.6 °C 997.2 hPa SE 19.3 km/h 32.2 km/h 95% 2.03 mm 0.00 W/m2
05:19 2.3 °C 1.6 °C 996.8 hPa SSE 20.9 km/h 27.4 km/h 95% 2.29 mm 0.00 W/m2
05:24 2.3 °C 1.6 °C 996.5 hPa South 16.1 km/h 33.8 km/h 95% 1.78 mm 0.00 W/m2
05:29 2.3 °C 1.6 °C 996.5 hPa South 24.1 km/h 32.2 km/h 95% 1.52 mm 0.00 W/m2
05:34 2.2 °C 1.5 °C 996.8 hPa South 30.6 km/h 35.4 km/h 95% 3.56 mm 0.00 W/m2
05:39 2.2 °C 1.4 °C 996.5 hPa SSE 12.9 km/h 43.5 km/h 95% 5.08 mm 0.00 W/m2
05:44 1.9 °C 1.2 °C 996.5 hPa ESE 12.9 km/h 40.2 km/h 95% 2.54 mm 0.00 W/m2
05:49 1.8 °C 1.1 °C 996.5 hPa SSE 29 km/h 29 km/h 95% 2.29 mm 0.00 W/m2
05:54 1.6 °C 0.8 °C 996.8 hPa South 22.5 km/h 29 km/h 95% 1.78 mm 0.00 W/m2
05:59 1.4 °C 0.7 °C 996.5 hPa South 14.5 km/h 41.8 km/h 95% 1.78 mm 0.00 W/m2
06:04 1.3 °C 0.6 °C 996.5 hPa South 20.9 km/h 38.6 km/h 95% 1.27 mm 0.00 W/m2
06:09 1.2 °C 0.5 °C 996.2 hPa SSE 12.9 km/h 32.2 km/h 95% 1.27 mm 0.00 W/m2
06:11 1.2 °C 0.4 °C 996.5 hPa South 29 km/h 29 km/h 95% 1.27 mm 0.00 W/m2
06:16 1.2 °C 0.4 °C 996.5 hPa South 11.3 km/h 32.2 km/h 95% 1.52 mm 0.00 W/m2
06:21 1.2 °C 0.5 °C 996.2 hPa SSE 11.3 km/h 25.7 km/h 95% 1.52 mm 0.00 W/m2
06:27 1.3 °C 0.6 °C 996.2 hPa South 11.3 km/h 27.4 km/h 95% 1.27 mm 0.00 W/m2
06:32 1.3 °C 0.6 °C 995.8 hPa SE 27.4 km/h 29 km/h 95% 1.27 mm 0.00 W/m2
06:37 1.4 °C 0.7 °C 996.2 hPa South 24.1 km/h 40.2 km/h 95% 1.52 mm 0.00 W/m2
06:41 1.6 °C 0.9 °C 995.8 hPa SSE 17.7 km/h 35.4 km/h 95% 1.52 mm 0.00 W/m2
06:46 1.8 °C 1.1 °C 995.8 hPa SSE 17.7 km/h 19.3 km/h 95% 1.52 mm 0.00 W/m2
06:51 2 °C 1.3 °C 995.8 hPa South 14.5 km/h 38.6 km/h 95% 1.02 mm 0.00 W/m2
06:57 2.1 °C 1.4 °C 995.8 hPa SE 6.4 km/h 37 km/h 95% 1.02 mm 0.00 W/m2
07:02 2.2 °C 1.5 °C 996.2 hPa SSW 20.9 km/h 24.1 km/h 95% 1.02 mm 0.00 W/m2
07:07 2.3 °C 1.6 °C 996.2 hPa SSE 19.3 km/h 22.5 km/h 95% 1.27 mm 0.00 W/m2
07:12 2.4 °C 1.7 °C 995.8 hPa SSE 25.7 km/h 29 km/h 95% 1.27 mm 0.00 W/m2
07:19 2.6 °C 2 °C 995.8 hPa SSE 30.6 km/h 35.4 km/h 96% 1.02 mm 0.00 W/m2
07:24 2.6 °C 2.1 °C 995.5 hPa South 24.1 km/h 38.6 km/h 96% 0 mm 0.00 W/m2
07:44 2.7 °C 2 °C 995.5 hPa South 25.7 km/h 40.2 km/h 95% 1.02 mm 0.00 W/m2
07:49 2.8 °C 2.1 °C 995.5 hPa SSW 24.1 km/h 33.8 km/h 95% 1.02 mm 0.00 W/m2
07:54 2.7 °C 2 °C 995.5 hPa SSW 11.3 km/h 37 km/h 95% 1.02 mm 7.00 W/m2
07:59 2.7 °C 2 °C 995.5 hPa SW 12.9 km/h 38.6 km/h 95% 0 mm 7.00 W/m2
08:04 2.7 °C 2 °C 995.1 hPa SSE 11.3 km/h 27.4 km/h 95% 0 mm 9.00 W/m2
08:09 2.7 °C 2 °C 995.5 hPa SSE 16.1 km/h 30.6 km/h 95% 0 mm 7.00 W/m2
08:14 2.7 °C 2 °C 995.5 hPa South 16.1 km/h 22.5 km/h 95% 0 mm 16.00 W/m2
08:19 2.7 °C 2 °C 995.8 hPa South 14.5 km/h 27.4 km/h 95% 0 mm 16.00 W/m2
08:24 2.7 °C 2 °C 995.8 hPa South 9.7 km/h 38.6 km/h 95% 0 mm 16.00 W/m2
08:29 2.7 °C 2 °C 995.8 hPa SE 20.9 km/h 32.2 km/h 95% 0 mm 21.00 W/m2
08:34 2.7 °C 2 °C 995.8 hPa SSE 20.9 km/h 49.9 km/h 95% 0 mm 28.00 W/m2
08:44 2.7 °C 1.9 °C 995.8 hPa SSE 24.1 km/h 40.2 km/h 95% 0 mm 28.00 W/m2
08:49 2.7 °C 1.9 °C 995.8 hPa SSE 12.9 km/h 40.2 km/h 95% 0 mm 23.00 W/m2
08:54 2.7 °C 1.9 °C 995.8 hPa SE 30.6 km/h 37 km/h 95% 0 mm 25.00 W/m2
08:59 2.7 °C 1.9 °C 996.2 hPa SSE 20.9 km/h 37 km/h 95% 0 mm 25.00 W/m2
09:04 2.6 °C 1.9 °C 995.8 hPa South 12.9 km/h 45.1 km/h 95% 0 mm 33.00 W/m2
09:09 2.7 °C 1.9 °C 995.8 hPa SE 17.7 km/h 35.4 km/h 95% 0 mm 32.00 W/m2
09:14 2.6 °C 1.9 °C 995.8 hPa South 30.6 km/h 37 km/h 95% 0 mm 30.00 W/m2
09:19 2.7 °C 1.9 °C 995.8 hPa SSE 30.6 km/h 40.2 km/h 95% 0 mm 39.00 W/m2
09:25 2.7 °C 1.9 °C 995.8 hPa SE 33.8 km/h 38.6 km/h 95% 0 mm 39.00 W/m2
09:30 2.7 °C 2 °C 995.8 hPa South 14.5 km/h 37 km/h 95% 0 mm 35.00 W/m2
09:35 2.7 °C 2 °C 995.8 hPa SSE 20.9 km/h 40.2 km/h 95% 0 mm 51.00 W/m2
09:40 2.8 °C 2.1 °C 995.8 hPa South 22.5 km/h 41.8 km/h 95% 0 mm 49.00 W/m2
09:45 2.8 °C 2.1 °C 995.8 hPa South 32.2 km/h 35.4 km/h 95% 0 mm 42.00 W/m2
09:50 2.8 °C 2.1 °C 996.2 hPa South 14.5 km/h 41.8 km/h 95% 0 mm 33.00 W/m2
09:55 2.8 °C 2.1 °C 996.2 hPa SSE 16.1 km/h 33.8 km/h 95% 0 mm 49.00 W/m2
10:00 2.8 °C 2.1 °C 996.2 hPa SSW 19.3 km/h 43.5 km/h 95% 0 mm 49.00 W/m2
10:05 2.8 °C 2.1 °C 996.2 hPa SSE 19.3 km/h 46.7 km/h 95% 0 mm 56.00 W/m2
10:10 2.8 °C 2.1 °C 995.8 hPa South 9.7 km/h 38.6 km/h 95% 0 mm 44.00 W/m2
10:15 2.7 °C 2 °C 995.8 hPa SSE 33.8 km/h 33.8 km/h 95% 0 mm 53.00 W/m2
10:20 2.7 °C 2 °C 996.2 hPa SSW 32.2 km/h 32.2 km/h 95% 0 mm 51.00 W/m2
10:25 2.8 °C 2.1 °C 995.8 hPa SSW 22.5 km/h 38.6 km/h 95% 0 mm 40.00 W/m2
10:30 2.7 °C 2 °C 995.8 hPa South 11.3 km/h 37 km/h 95% 0 mm 46.00 W/m2
10:35 2.7 °C 2 °C 995.8 hPa SSE 12.9 km/h 35.4 km/h 95% 0 mm 49.00 W/m2
10:40 2.7 °C 2 °C 995.8 hPa SSW 14.5 km/h 24.1 km/h 95% 0 mm 67.00 W/m2
10:45 2.7 °C 2 °C 995.8 hPa SSE 19.3 km/h 25.7 km/h 95% 0 mm 67.00 W/m2
10:50 2.8 °C 2.1 °C 995.5 hPa SSE 9.7 km/h 25.7 km/h 95% 0 mm 76.00 W/m2
10:55 2.8 °C 2.1 °C 995.5 hPa South 16.1 km/h 33.8 km/h 95% 0 mm 72.00 W/m2
11:00 2.8 °C 2.1 °C 995.5 hPa SSE 20.9 km/h 32.2 km/h 95% 0 mm 63.00 W/m2
11:05 2.8 °C 2.1 °C 995.5 hPa South 20.9 km/h 35.4 km/h 95% 0 mm 93.00 W/m2
11:10 2.8 °C 2.1 °C 995.5 hPa South 16.1 km/h 27.4 km/h 95% 0 mm 76.00 W/m2
11:15 2.9 °C 2.2 °C 995.5 hPa South 27.4 km/h 29 km/h 95% 0 mm 116.00 W/m2
11:20 2.9 °C 2.2 °C 995.5 hPa SE 14.5 km/h 35.4 km/h 95% 0 mm 83.00 W/m2
11:25 3 °C 2.3 °C 995.1 hPa SSE 11.3 km/h 27.4 km/h 95% 0 mm 60.00 W/m2
11:30 3 °C 2.3 °C 995.5 hPa SSW 12.9 km/h 25.7 km/h 95% 0 mm 56.00 W/m2
11:35 3.1 °C 2.3 °C 995.5 hPa South 20.9 km/h 25.7 km/h 95% 0 mm 62.00 W/m2
11:40 3.1 °C 2.3 °C 995.1 hPa South 11.3 km/h 37 km/h 95% 0 mm 65.00 W/m2
11:45 3.1 °C 2.4 °C 995.1 hPa SSW 12.9 km/h 30.6 km/h 95% 0 mm 62.00 W/m2
11:50 3.2 °C 2.6 °C 995.1 hPa South 20.9 km/h 29 km/h 96% 0 mm 54.00 W/m2
11:55 3.2 °C 2.4 °C 995.1 hPa SSE 14.5 km/h 30.6 km/h 95% 0 mm 70.00 W/m2
12:00 3.2 °C 2.4 °C 994.8 hPa South 4.8 km/h 32.2 km/h 95% 0 mm 67.00 W/m2
12:05 3.2 °C 2.5 °C 994.8 hPa South 14.5 km/h 32.2 km/h 95% 0 mm 63.00 W/m2
12:10 3.3 °C 2.6 °C 994.8 hPa SSE 14.5 km/h 29 km/h 95% 0 mm 60.00 W/m2
12:15 3.3 °C 2.6 °C 994.8 hPa South 6.4 km/h 29 km/h 95% 0 mm 76.00 W/m2
12:20 3.3 °C 2.6 °C 994.8 hPa South 8 km/h 24.1 km/h 95% 0 mm 67.00 W/m2
12:25 3.4 °C 2.7 °C 994.5 hPa SSW 9.7 km/h 33.8 km/h 95% 0 mm 74.00 W/m2
12:30 3.4 °C 2.9 °C 994.5 hPa SSW 22.5 km/h 30.6 km/h 96% 0 mm 37.00 W/m2
12:35 3.4 °C 2.9 °C 994.5 hPa South 4.8 km/h 29 km/h 96% 0 mm 49.00 W/m2
12:40 3.5 °C 2.9 °C 994.1 hPa SSE 20.9 km/h 29 km/h 96% 0 mm 49.00 W/m2
12:45 3.5 °C 2.9 °C 994.1 hPa SSW 9.7 km/h 32.2 km/h 96% 0 mm 60.00 W/m2
12:50 3.5 °C 2.9 °C 994.1 hPa SSE 22.5 km/h 29 km/h 96% 0 mm 65.00 W/m2
12:55 3.6 °C 3 °C 994.1 hPa SSE 14.5 km/h 27.4 km/h 96% 0 mm 105.00 W/m2
12:56 3.5 °C 2.9 °C 994.1 hPa South 17.7 km/h 20.9 km/h 96% 0 mm 105.00 W/m2
13:01 3.6 °C 3 °C 993.8 hPa South 14.5 km/h 14.5 km/h 96% 0 mm 44.00 W/m2
13:06 3.6 °C 3 °C 993.8 hPa SSE 14.5 km/h 14.5 km/h 96% 0 mm 42.00 W/m2
13:11 3.6 °C 3 °C 993.8 hPa SSE 16.1 km/h 17.7 km/h 96% 0 mm 35.00 W/m2
13:16 3.6 °C 3 °C 993.8 hPa SSE 19.3 km/h 32.2 km/h 96% 0 mm 58.00 W/m2
13:21 3.6 °C 3 °C 993.8 hPa SSW 16.1 km/h 16.1 km/h 96% 0 mm 39.00 W/m2
13:26 3.6 °C 3 °C 994.1 hPa SSW 3.2 km/h 6.4 km/h 96% 1.78 mm 28.00 W/m2
13:31 3.6 °C 3 °C 994.1 hPa SSW 22.5 km/h 35.4 km/h 96% 3.81 mm 23.00 W/m2
13:36 3.4 °C 2.9 °C 994.1 hPa South 9.7 km/h 9.7 km/h 96% 5.59 mm 44.00 W/m2
13:41 3.3 °C 2.6 °C 994.1 hPa South 6.4 km/h 8 km/h 95% 2.03 mm 44.00 W/m2
13:46 3.3 °C 2.6 °C 993.8 hPa South 11.3 km/h 11.3 km/h 95% 2.03 mm 125.00 W/m2
13:51 3.3 °C 2.6 °C 994.1 hPa South 14.5 km/h 14.5 km/h 95% 1.52 mm 65.00 W/m2
13:56 3.3 °C 2.6 °C 993.8 hPa Calm     95% 1.27 mm 44.00 W/m2
14:01 3.3 °C 2.6 °C 993.8 hPa South 6.4 km/h 8 km/h 95% 1.27 mm 35.00 W/m2
14:06 3.3 °C 2.6 °C 993.8 hPa Calm   6.4 km/h 95% 1.27 mm 60.00 W/m2
14:11 3.3 °C 2.6 °C 994.1 hPa SW 12.9 km/h 16.1 km/h 95% 0 mm 56.00 W/m2
14:16 3.4 °C 2.7 °C 994.1 hPa South 11.3 km/h 14.5 km/h 95% 0 mm 54.00 W/m2
14:21 3.4 °C 2.9 °C 993.8 hPa South 3.2 km/h 12.9 km/h 96% 0 mm 65.00 W/m2
14:26 3.4 °C 2.9 °C 993.8 hPa South 9.7 km/h 20.9 km/h 96% 0 mm 37.00 W/m2
14:31 3.4 °C 2.9 °C 993.8 hPa South 17.7 km/h 17.7 km/h 96% 0 mm 40.00 W/m2
14:36 3.4 °C 2.9 °C 993.8 hPa SSW 8 km/h 16.1 km/h 96% 0 mm 28.00 W/m2
14:41 3.4 °C 2.9 °C 994.1 hPa SSW 16.1 km/h 22.5 km/h 96% 0 mm 42.00 W/m2
14:46 3.4 °C 2.9 °C 994.1 hPa South 14.5 km/h 14.5 km/h 96% 0 mm 32.00 W/m2
14:51 3.4 °C 2.9 °C 994.1 hPa South 6.4 km/h 12.9 km/h 96% 0 mm 47.00 W/m2
14:56 3.4 °C 2.9 °C 994.1 hPa SSW 9.7 km/h 16.1 km/h 96% 0 mm 62.00 W/m2
15:01 3.5 °C 2.9 °C 994.1 hPa SSW 11.3 km/h 12.9 km/h 96% 0 mm 35.00 W/m2
15:06 3.6 °C 3 °C 994.1 hPa SSW 6.4 km/h 11.3 km/h 96% 0 mm 28.00 W/m2
15:11 3.6 °C 3 °C 993.8 hPa Calm     96% 0 mm 42.00 W/m2
15:16 3.6 °C 3.1 °C 993.8 hPa SSW 9.7 km/h 16.1 km/h 96% 0 mm 42.00 W/m2
15:22 3.6 °C 3.1 °C 993.8 hPa SSW 9.7 km/h 14.5 km/h 96% 0 mm 42.00 W/m2
15:27 3.6 °C 3.1 °C 993.8 hPa Calm   19.3 km/h 96% 0 mm 30.00 W/m2
15:32 3.6 °C 2.9 °C 993.8 hPa Calm   6.4 km/h 95% 0 mm 19.00 W/m2
15:37 3.6 °C 2.9 °C 993.8 hPa Calm   3.2 km/h 95% 0 mm 12.00 W/m2
15:42 3.6 °C 2.9 °C 993.8 hPa South 11.3 km/h 19.3 km/h 95% 0 mm 25.00 W/m2
15:47 3.6 °C 3 °C 994.1 hPa SSE 9.7 km/h 22.5 km/h 96% 0 mm 14.00 W/m2
15:52 3.4 °C 2.9 °C 994.1 hPa South 20.9 km/h 25.7 km/h 96% 0 mm 16.00 W/m2
15:57 3.3 °C 2.6 °C 994.1 hPa SSE 11.3 km/h 19.3 km/h 95% 0 mm 23.00 W/m2
16:02 3.2 °C 2.5 °C 994.1 hPa South 17.7 km/h 19.3 km/h 95% 0 mm 16.00 W/m2
16:07 3.2 °C 2.6 °C 994.5 hPa SSW 11.3 km/h 12.9 km/h 96% 0 mm 14.00 W/m2
16:12 3.1 °C 2.6 °C 994.5 hPa SW 20.9 km/h 20.9 km/h 96% 0 mm 16.00 W/m2
16:17 3.1 °C 2.5 °C 994.1 hPa South 20.9 km/h 24.1 km/h 96% 0 mm 19.00 W/m2
16:22 3.1 °C 2.6 °C 994.5 hPa SSW 14.5 km/h 19.3 km/h 96% 0 mm 12.00 W/m2
16:27 3.2 °C 2.6 °C 994.5 hPa South 11.3 km/h 19.3 km/h 96% 0 mm 14.00 W/m2
16:32 3.2 °C 2.6 °C 994.5 hPa South 6.4 km/h 19.3 km/h 96% 0 mm 9.00 W/m2
16:37 3.2 °C 2.6 °C 994.5 hPa SSW 9.7 km/h 17.7 km/h 96% 0 mm 9.00 W/m2
16:42 3.2 °C 2.7 °C 994.5 hPa South 3.2 km/h 14.5 km/h 96% 0 mm 5.00 W/m2
16:47 3.2 °C 2.5 °C 994.5 hPa South 8 km/h 17.7 km/h 95% 0 mm 5.00 W/m2
16:52 3.3 °C 2.6 °C 994.5 hPa SW 17.7 km/h 20.9 km/h 95% 0 mm 9.00 W/m2
16:57 3.3 °C 2.6 °C 994.5 hPa SSW 6.4 km/h 12.9 km/h 95% 0 mm 5.00 W/m2
17:02 3.3 °C 2.6 °C 994.5 hPa SSE 16.1 km/h 17.7 km/h 95% 0 mm 0.00 W/m2
17:07 3.3 °C 2.6 °C 994.5 hPa SSW 9.7 km/h 11.3 km/h 95% 0 mm 0.00 W/m2
17:12 3.3 °C 2.8 °C 994.5 hPa SSW 12.9 km/h 22.5 km/h 96% 0 mm 0.00 W/m2
17:17 3.3 °C 2.6 °C 994.5 hPa South 16.1 km/h 19.3 km/h 95% 0 mm 0.00 W/m2
17:22 3.3 °C 2.6 °C 994.8 hPa Calm   17.7 km/h 95% 0 mm 0.00 W/m2
17:27 3.3 °C 2.6 °C 994.8 hPa SSE 3.2 km/h 22.5 km/h 95% 0 mm 0.00 W/m2
17:32 3.3 °C 2.7 °C 994.8 hPa SE 12.9 km/h 19.3 km/h 96% 0 mm 0.00 W/m2
17:37 3.3 °C 2.7 °C 994.8 hPa South 24.1 km/h 30.6 km/h 96% 0 mm 0.00 W/m2
17:42 3.3 °C 2.6 °C 995.1 hPa South 8 km/h 24.1 km/h 95% 0 mm 0.00 W/m2
17:47 3.2 °C 2.7 °C 995.1 hPa South 9.7 km/h 16.1 km/h 96% 0 mm 0.00 W/m2
17:52 3.2 °C 2.7 °C 995.1 hPa South 14.5 km/h 24.1 km/h 96% 0 mm 0.00 W/m2
17:58 3.2 °C 2.7 °C 995.1 hPa SE 9.7 km/h 25.7 km/h 96% 0 mm 0.00 W/m2
18:02 3.2 °C 2.6 °C 995.1 hPa SSE 8 km/h 19.3 km/h 96% 0 mm 0.00 W/m2
18:08 3.2 °C 2.6 °C 995.1 hPa South 9.7 km/h 16.1 km/h 96% 0 mm 0.00 W/m2
18:13 3.2 °C 2.6 °C 995.1 hPa SSW 12.9 km/h 17.7 km/h 96% 0 mm 0.00 W/m2
18:18 3.2 °C 2.4 °C 995.1 hPa SSW 14.5 km/h 20.9 km/h 95% 0 mm 0.00 W/m2
18:23 3.2 °C 2.4 °C 995.5 hPa SSW 14.5 km/h 35.4 km/h 95% 0 mm 0.00 W/m2
18:28 3.1 °C 2.4 °C 995.5 hPa SW 11.3 km/h 24.1 km/h 95% 0 mm 0.00 W/m2
18:33 3.1 °C 2.4 °C 995.5 hPa South 9.7 km/h 17.7 km/h 95% 0 mm 0.00 W/m2
18:38 3.1 °C 2.4 °C 995.5 hPa SW 6.4 km/h 17.7 km/h 95% 0 mm 0.00 W/m2
18:43 3.1 °C 2.4 °C 995.5 hPa SW 6.4 km/h 17.7 km/h 95% 0 mm 0.00 W/m2
18:48 3.1 °C 2.4 °C 995.8 hPa SSW 6.4 km/h 16.1 km/h 95% 0 mm 0.00 W/m2
18:53 3.1 °C 2.3 °C 995.8 hPa SW 16.1 km/h 17.7 km/h 95% 0 mm 0.00 W/m2
18:58 3 °C 2.3 °C 995.8 hPa South 12.9 km/h 14.5 km/h 95% 0 mm 0.00 W/m2
19:03 3.1 °C 2.3 °C 995.8 hPa SW 3.2 km/h 19.3 km/h 95% 0 mm 0.00 W/m2
19:08 3.1 °C 2.3 °C 996.2 hPa South 9.7 km/h 30.6 km/h 95% 0 mm 0.00 W/m2
19:13 3.1 °C 2.3 °C 996.2 hPa SW 19.3 km/h 20.9 km/h 95% 0 mm 0.00 W/m2
19:18 3.1 °C 2.3 °C 996.2 hPa SSW 9.7 km/h 17.7 km/h 95% 0 mm 0.00 W/m2
19:23 3.1 °C 2.3 °C 996.2 hPa SSW 8 km/h 19.3 km/h 95% 0 mm 0.00 W/m2
19:28 3.1 °C 2.3 °C 996.2 hPa SSW 14.5 km/h 27.4 km/h 95% 0 mm 0.00 W/m2
19:33 3 °C 2.3 °C 996.2 hPa SW 17.7 km/h 22.5 km/h 95% 0 mm 0.00 W/m2
19:38 3 °C 2.3 °C 996.2 hPa SW 17.7 km/h 32.2 km/h 95% 0 mm 0.00 W/m2
19:43 3 °C 2.3 °C 996.2 hPa SSW 12.9 km/h 20.9 km/h 95% 0 mm 0.00 W/m2
19:48 3 °C 2.3 °C 996.5 hPa South 11.3 km/h 20.9 km/h 95% 0 mm 0.00 W/m2
19:53 3 °C 2.3 °C 996.5 hPa SSW 8 km/h 16.1 km/h 95% 0 mm 0.00 W/m2
19:58 3.1 °C 2.3 °C 996.5 hPa SSE 12.9 km/h 19.3 km/h 95% 0 mm 0.00 W/m2
20:03 3.1 °C 2.3 °C 996.5 hPa SSW 6.4 km/h 20.9 km/h 95% 0 mm 0.00 W/m2
20:08 3.1 °C 2.3 °C 996.5 hPa South 9.7 km/h 29 km/h 95% 0 mm 0.00 W/m2
20:13 3 °C 2.3 °C 996.5 hPa SSE 22.5 km/h 29 km/h 95% 2.03 mm 0.00 W/m2
20:18 3 °C 2.4 °C 996.8 hPa SSW 12.9 km/h 35.4 km/h 96% 2.03 mm 0.00 W/m2
20:23 2.9 °C 2.4 °C 996.8 hPa SW 3.2 km/h 16.1 km/h 96% 1.78 mm 0.00 W/m2
20:28 2.9 °C 2.3 °C 996.8 hPa SSW 24.1 km/h 24.1 km/h 96% 2.03 mm 0.00 W/m2
20:33 2.9 °C 2.3 °C 996.8 hPa South 1.6 km/h 19.3 km/h 96% 5.59 mm 0.00 W/m2
20:38 2.8 °C 2.3 °C 996.8 hPa SSW 1.6 km/h 25.7 km/h 96% 3.81 mm 0.00 W/m2
20:43 2.7 °C 1.9 °C 997.2 hPa SSW 20.9 km/h 20.9 km/h 95% 3.56 mm 0.00 W/m2
20:48 2.7 °C 1.9 °C 997.2 hPa SW 8 km/h 22.5 km/h 95% 1.78 mm 0.00 W/m2
20:53 2.7 °C 1.9 °C 997.2 hPa SSW 6.4 km/h 25.7 km/h 95% 1.02 mm 0.00 W/m2
20:58 2.7 °C 1.9 °C 997.2 hPa Calm   24.1 km/h 95% 1.02 mm 0.00 W/m2
21:03 2.7 °C 1.9 °C 997.2 hPa SW 12.9 km/h 22.5 km/h 95% 1.02 mm 0.00 W/m2
21:08 2.7 °C 1.9 °C 997.5 hPa SW 19.3 km/h 20.9 km/h 95% 1.52 mm 0.00 W/m2
21:13 2.6 °C 2.1 °C 997.5 hPa South 20.9 km/h 20.9 km/h 96% 3.56 mm 0.00 W/m2
21:18 2.6 °C 2 °C 997.9 hPa South 14.5 km/h 22.5 km/h 96% 4.06 mm 0.00 W/m2
21:23 2.5 °C 1.9 °C 997.9 hPa SSW 8 km/h 16.1 km/h 96% 2.29 mm 0.00 W/m2
21:28 2.4 °C 1.7 °C 997.9 hPa SSW 6.4 km/h 17.7 km/h 95% 4.06 mm 0.00 W/m2
21:33 2.3 °C 1.6 °C 997.9 hPa WSW 1.6 km/h 17.7 km/h 95% 2.54 mm 0.00 W/m2
21:38 2.3 °C 1.6 °C 998.2 hPa Calm   17.7 km/h 95% 3.81 mm 0.00 W/m2
21:43 2.3 °C 1.6 °C 998.2 hPa SSW 11.3 km/h 19.3 km/h 95% 5.08 mm 0.00 W/m2
21:48 2.2 °C 1.7 °C 998.2 hPa SW 12.9 km/h 22.5 km/h 96% 3.3 mm 0.00 W/m2
21:53 2.2 °C 1.6 °C 998.5 hPa South 19.3 km/h 22.5 km/h 96% 2.29 mm 0.00 W/m2
21:58 2.2 °C 1.7 °C 998.5 hPa SSW 9.7 km/h 22.5 km/h 96% 2.03 mm 0.00 W/m2
22:03 2.2 °C 1.7 °C 998.5 hPa SSW 8 km/h 12.9 km/h 96% 1.78 mm 0.00 W/m2
22:08 2.2 °C 1.7 °C 998.5 hPa Calm     96% 1.02 mm 0.00 W/m2
22:13 2.2 °C 1.7 °C 998.9 hPa Calm     96% 1.02 mm 0.00 W/m2
22:18 2.2 °C 1.7 °C 998.9 hPa SW 9.7 km/h 14.5 km/h 96% 1.02 mm 0.00 W/m2
22:23 2.2 °C 1.7 °C 998.9 hPa Calm     96% 1.27 mm 0.00 W/m2
22:28 2.3 °C 1.7 °C 998.9 hPa SW 11.3 km/h 19.3 km/h 96% 1.27 mm 0.00 W/m2
22:33 2.3 °C 1.6 °C 998.9 hPa South 12.9 km/h 17.7 km/h 95% 1.27 mm 0.00 W/m2
22:38 2.3 °C 1.7 °C 999.2 hPa SSW 4.8 km/h 16.1 km/h 96% 0 mm 0.00 W/m2
22:43 2.3 °C 1.8 °C 999.2 hPa South 3.2 km/h 19.3 km/h 96% 0 mm 0.00 W/m2
22:48 2.3 °C 1.8 °C 999.2 hPa South 4.8 km/h 19.3 km/h 96% 0 mm 0.00 W/m2
22:53 2.3 °C 1.8 °C 999.2 hPa SSW 14.5 km/h 22.5 km/h 96% 0 mm 0.00 W/m2
22:58 2.4 °C 1.8 °C 999.2 hPa SSW 6.4 km/h 14.5 km/h 96% 0 mm 0.00 W/m2
23:03 2.4 °C 1.8 °C 999.2 hPa South 11.3 km/h 22.5 km/h 96% 0 mm 0.00 W/m2
23:08 2.4 °C 1.9 °C 999.5 hPa Calm   17.7 km/h 96% 1.02 mm 0.00 W/m2
23:13 2.4 °C 1.9 °C 999.5 hPa Calm   24.1 km/h 96% 1.02 mm 0.00 W/m2
23:18 2.4 °C 1.9 °C 999.5 hPa SW 11.3 km/h 22.5 km/h 96% 1.27 mm 0.00 W/m2
23:23 2.4 °C 1.8 °C 999.5 hPa South 11.3 km/h 22.5 km/h 96% 1.27 mm 0.00 W/m2
23:28 2.4 °C 1.8 °C 999.9 hPa Calm     96% 1.27 mm 0.00 W/m2
23:33 2.4 °C 1.8 °C 999.9 hPa SSE 16.1 km/h 17.7 km/h 96% 1.02 mm 0.00 W/m2
23:38 2.4 °C 1.8 °C 999.9 hPa SSE 3.2 km/h 20.9 km/h 96% 0 mm 0.00 W/m2
23:43 2.4 °C 1.8 °C 999.9 hPa SSW 16.1 km/h 19.3 km/h 96% 0 mm 0.00 W/m2
23:48 2.4 °C 1.8 °C 999.9 hPa South 6.4 km/h 14.5 km/h 96% 0 mm 0.00 W/m2
23:53 2.4 °C 1.8 °C 999.9 hPa SW 19.3 km/h 19.3 km/h 96% 0 mm 0.00 W/m2
23:58 2.4 °C 1.9 °C 1000.2 hPa SSW 9.7 km/h 14.5 km/h 96% 0 mm 0.00 W/m2
Foresthill Weather
 WU-history PHP script courtesy of   Juneau County Weather.
powered by Cumulus v1.9.3 (1059)
Ambient Weather VWS v14.00
Top Contact Website Map Copyright © 2007 - 2018 Foresthillweather.com Never base important decisions on this or any weather information obtained from the Internet